CheckWX is a tool to help pilots better visualize weather data.  It is not intended as a substitute for an official pre-flight weather briefing.

06:18:37 UTC

CYYT METAR
St. John's International Airport
St. John's, Canada
Current

1 hour ago

CYYT 050500Z 02006KT 15SM SCT006 OVC020 M04/M05 A2993 RMK SF4SC4 SLP143
Observed
Apr-5 @ 05:00 UTC
Wind
  • 020° at 6 KTS
Visibility
Flight Rules
MVFR
Cloud Levels
  • Scattered at 600' AGL
  • Overcast at 2,000' AGL
Temperature
-4°C / 25°F
Dewpoint
-5°C / 23°F
Humidity
93%
Altimeter
29.93" Hg
Pressure
1013.52 hPa
Previous

2 hours ago

CYYT 050422Z 03006KT 15SM -FZDZ OVC006 M04/M05 A2993 RMK SF8 SLP144
Observed
Apr-5 @ 04:22 UTC
Wind
  • 030° at 6 KTS
Visibility
Flight Rules
IFR
Conditions
Light Freezing Drizzle
Cloud Levels
  • Overcast at 600' AGL
Temperature
-4°C / 25°F
Dewpoint
-5°C / 23°F
Humidity
93%
Altimeter
29.93" Hg
Pressure
1013.52 hPa
Previous

2 hours ago

CYYT 050400Z 01009KT 15SM OVC008 M03/M05 A2993 RMK SF8 SLP145
Observed
Apr-5 @ 04:00 UTC
Wind
  • 010° at 9 KTS
Visibility
Flight Rules
IFR
Cloud Levels
  • Overcast at 800' AGL
Temperature
-3°C / 27°F
Dewpoint
-5°C / 23°F
Humidity
86%
Altimeter
29.93" Hg
Pressure
1013.52 hPa